Terminal Aerodrome Forecast
Issued by NWS

Current Version | Previous Version | Text Only | Print | Product List | Glossary On
Versions: 1 2 3 4 5 6 7 8 9 10 11 12 13 14 15 16 17 18 19 20 21
000
FTUS46 KMTR 170500
TAFSNS
TAF
KSNS 170520Z 1706/1806 27008KT P6SM FEW011
      TEMPO 1708/1712 BKN007
     FM171200 14004KT P6SM BKN007
     FM171700 29009KT P6SM SKC
     FM180400 24004KT P6SM BKN009=

USA.gov is the U.S. government's official web portal to all federal, state and local government web resources and services.